ドクターコンビ!!!

LUXURY FLIGHT

03-6423-7371

羽田本店:東京都大田区羽田5-11-1
営業時間:10:00~20:00
定休日:毎週 月曜日
セントレア店:愛知県常滑市セントレア1-1
営業時間:10:00~20:00 年中無休

lv

ドクターコンビ!!!

STAFF BLOG

2019/09/18 ドクターコンビ!!!

こんちわっすーーーーー

 

 

本日のどんよりとした羽田空港のMETARは…

RJTT 180400Z 05008KT 9999 VCSH FEW010 SCT040 BKN100 22/18 Q1010

NOSIG RMK 1CU010 4SC040 7AC100 A2984

 

さてさてさて、本日はとある関東の病院でドクターをされているお二人のご紹介!!

 

飛行機が大好きすぎるという事で、我々も勝手にテンションが上がります!!

 

 

 

img_2946

 

男性の方は、シミュレーターのご経験があったので、

着陸の際のスキャンパターン、ピッチ&バンク&パワーコントロール等

かなり奥深いところまで楽しんでいただきました!!

 

女性の方は、遊覧飛行をメインで自動操縦の使い方を学んでいただきましたー!!!

 

しかもお二人!!!

 

「ドクターコール」という呼び名で知られる

急病人等が飛行中発生した際に「お客様の中で医療関係者の方はいらっしゃいませんか??」

という機内アナウンスに備え、常に搭乗中はスタンバイしているという事。

 

そのための勉強もされているそうで

いざとなった時に、そういう気概を持たれている方がいらっしゃるというだけで、

もの凄く心強い存在ではないですか!!!

 

そんな方がより一層飛行機に興味を持っていただけるよう、全力でサポートさせていただきました!!

 

普段のお仕事が大変なのにも関わらず、こういった場所に遊びに来てくださる向上心を

私自身もしっかりと学ばせていただきました!!!

 

是非次回のご来店の際はパワーアップした姿で楽しんでいただきたく思います!!!

 

この度のご来店、誠にありがとうございました。

 

 

「感謝」

 

 

 

 

 

TOP